Meteo Ravnje - METAR stanice u blizini


METAR stanice u blizini

 

LYBE - Beograd / Surčin, Srbija
Ažurirano: 15/08/2018 18:00
Partly Cloudy
Partly Cloudy
 Pravac vetra ZSZ
Vetar: ZSZ 17 km/h
Temperatura: 28°C
Heat Index: 29°C
Tačka rose: 18°C
Vlažnost: 55%
Pritisak: 1014 hPa
Oblaci: Partly Cloudy
Vidljivost: 10 km
Cloud details: Partly Cloudy 1372 m
2018/08/15 16:00 LYBE 151600Z 30009KT 9999 SCT045 28/18 Q1014 NOSIG
LYBT - Beograd / Batajnica, Srbija
Ažurirano: 15/08/2018 18:00
Vedro
Vedro
 Pravac vetra Z
Vetar: Z 13 km/h
Temperatura: 28°C
Heat Index: 29°C
Tačka rose: 18°C
Vlažnost: 55%
Pritisak: 1014 hPa
Pregled: Vedro
Vidljivost: greater than 10 km
2018/08/15 16:00 LYBT 151600Z 28007KT 200V350 CAVOK 28/18 Q1014 NOSIG
LYVR - Vršac, Srbija
Ažurirano: 15/08/2018 18:00
Partly Cloudy
Partly Cloudy
 Pravac vetra ZSZ
Vetar: ZSZ 7 km/h
Temperatura: 28°C
Heat Index: 28°C
Tačka rose: 16°C
Vlažnost: 48%
Pritisak: 1014 hPa
Oblaci: Partly Cloudy
Vidljivost: 10 km
Cloud details: Partly Cloudy 1006 m
2018/08/15 16:00 LYVR 151600Z 30004KT 9999 SCT033 28/16 Q1014 NOSIG
 
LYKV - Lađevci, Srbija
Ažurirano: 15/08/2018 18:00
Few Clouds
Few Clouds
 Pravac vetra SSZ
Vetar: SSZ 6 km/h
Temperatura: 26°C
Tačka rose: 18°C
Vlažnost: 61%
Pritisak: 1015 hPa
Oblaci: Few Clouds
Vidljivost: 10 km
Cloud details: Few Clouds 1219 m
2018/08/15 16:00 LYKV 151600Z 34003KT 200V010 9999 FEW040 26/18 Q1015 NOSIG
LYNI - Niš, Srbija
Ažurirano: 15/08/2018 18:00
Vedro
Vedro
 Pravac vetra SSZ
Vetar: SSZ 24 km/h
Temperatura: 27°C
Heat Index: 28°C
Tačka rose: 18°C
Vlažnost: 58%
Pritisak: 1013 hPa
Pregled: Vedro
Vidljivost: greater than 10 km
2018/08/15 16:00 LYNI 151600Z 33013KT 280V350 CAVOK 27/18 Q1013 NOSIG
BKPR - Priština, Srbija
Ažurirano: 15/08/2018 18:00
Mostly Cloudy
Mostly Cloudy
 Pravac vetra SSI
Vetar: SSI 17 km/h
Temperatura: 25°C
Tačka rose: 14°C
Vlažnost: 51%
Pritisak: 1014 hPa
Oblaci: Mostly Cloudy
Vidljivost: 10 km
Cloud details: Few Clouds 914 m
Few Clouds 1219 m
Mostly Cloudy 2438 m
2018/08/15 16:00 BKPR 151600Z 02009KT 9999 FEW030CB FEW040 BKN080 25/14 Q1014 NOSIG
 
LHPP - Pecs / Pogany, Hungary
Ažurirano: 15/08/2018 17:45
Mostly Cloudy
Mostly Cloudy
 Pravac vetra S
Vetar: S 13 km/h
Temperatura: 25°C
Tačka rose: 15°C
Vlažnost: 54%
Pritisak: 1017 hPa
Oblaci: Mostly Cloudy
Vidljivost: 10 km
Cloud details: Few Clouds 1402 m
Mostly Cloudy 6096 m
2018/08/15 15:45 LHPP 151545Z 35007KT 9999 FEW046 BKN200 25/15 Q1017
LHUD - Szeged, Hungary
Ažurirano: 15/08/2018 17:45
Mostly Cloudy
Mostly Cloudy
 Pravac vetra SSZ
Vetar: SSZ 19 km/h
Temperatura: 28°C
Heat Index: 28°C
Tačka rose: 17°C
Vlažnost: 51%
Pritisak: 1014 hPa
Oblaci: Mostly Cloudy
Vidljivost: 10 km
Cloud details: Few Clouds 1219 m
Partly Cloudy 1524 m
Mostly Cloudy 6096 m
2018/08/15 15:45 LHUD 151545Z 34010KT 9999 FEW040CB SCT050 BKN200 28/17 Q1014
LRTR - Timisoara, Romania
Ažurirano: 15/08/2018 18:00
Few Clouds
Few Clouds
 Pravac vetra ZSZ
Vetar: ZSZ 7 km/h
Temperatura: 29°C
Heat Index: 29°C
Tačka rose: 16°C
Vlažnost: 45%
Pritisak: 1013 hPa
Oblaci: Few Clouds
Vidljivost: 10 km
Cloud details: Few Clouds 1676 m
2018/08/15 16:00 LRTR 151600Z 30004KT 280V350 9999 FEW055CB 29/16 Q1013
 
LRCV - Craiova, Romania
Ažurirano: 15/08/2018 18:00
Vedro
Vedro
 Pravac vetra ISI
Vetar: ISI 9 km/h
Temperatura: 29°C
Tačka rose: 7°C
Vlažnost: 25%
Pritisak: 1013 hPa
Pregled: Vedro
Vidljivost: greater than 10 km
2018/08/15 16:00 LRCV 151600Z 07005KT CAVOK 29/07 Q1013
LBSF - Sofia, Bulgaria
Ažurirano: 15/08/2018 18:00
Partly Cloudy
Partly Cloudy
 Pravac vetra I
Vetar: I 13 km/h
Temperatura: 26°C
Tačka rose: 14°C
Vlažnost: 48%
Pritisak: 1014 hPa
Oblaci: Partly Cloudy
Vidljivost: 10 km
Cloud details: Partly Cloudy 1829 m
2018/08/15 16:00 LBSF 151600Z 08007KT 9999 SCT060 26/14 Q1014 NOSIG
LWSK - Skoplje, Makedonija
Ažurirano: 15/08/2018 18:00
Mostly Cloudy
Mostly Cloudy
 Pravac vetra SSI
Vetar: SSI 13 km/h
Temperatura: 29°C
Heat Index: 28°C
Tačka rose: 14°C
Vlažnost: 40%
Pritisak: 1012 hPa
Oblaci: Mostly Cloudy
Vidljivost: 10 km
Cloud details: Few Clouds 1524 m
Mostly Cloudy 3048 m
2018/08/15 16:00 LWSK 151600Z 02007KT 360V060 9999 FEW050 BKN100 29/14 Q1012 NOSIG
 
LYPG - Podgorica, Crna Gora
Ažurirano: 15/08/2018 18:00
Thunderstorm, Few clouds
Thunderstorm, Few clouds
 Pravac vetra SSI
Vetar: SSI 24 km/h
Temperatura: 31°C
Tačka rose: 13°C
Vlažnost: 33%
Pritisak: 1010 hPa
Pregled: Thunderstorm
Oblaci: Few Clouds
Vidljivost: 10 km
Cloud details: Few Clouds 1006 m
Few Clouds 1219 m
2018/08/15 16:00 LYPG 151600Z 02013KT 260V050 9999 TS FEW033TCU FEW040CB 31/13 Q1010 TEMPO TSRA FEW033CB SCT040TCU
LQSA - Sarajevo, Bosna i Hercegovina
Ažurirano: 15/08/2018 18:00
Slaba kiša, Delimično oblačno
Slaba kiša, Delimično oblačno
 Pravac vetra Z
Vetar: Z 17 km/h
Temperatura: 21°C
Tačka rose: 17°C
Vlažnost: 78%
Pritisak: 1016 hPa
Pregled: Light Rain
Oblaci: Partly Cloudy
Vidljivost: 10 km
Cloud details: Few Clouds 1067 m
Partly Cloudy 1524 m
2018/08/15 16:00 LQSA 151600Z 27009KT 9999 -RA FEW035TCU SCT050 21/17 Q1016 TEMPO TSRA FEW035CB BKN045
LDOS - Osijek, Hrvatksa
Ažurirano: 15/08/2018 18:00
Vedro
Vedro
 Pravac vetra S
Vetar: S 15 km/h
Temperatura: 27°C
Heat Index: 28°C
Tačka rose: 16°C
Vlažnost: 51%
Pritisak: 1015 hPa
Pregled: Vedro
Vidljivost: greater than 10 km
2018/08/15 16:00 LDOS 151600Z 01008KT CAVOK 27/16 Q1015